sensor_id;sensor_type;location;lat;lon;timestamp;pressure;altitude;pressure_sealevel;temperature;humidity
10958;BME280;5531;42.570;23.676;2023-02-12T00:02:04;92795.47;;;-3.07;71.96
10958;BME280;5531;42.570;23.676;2023-02-12T00:04:33;92789.38;;;-3.19;75.18
10958;BME280;5531;42.570;23.676;2023-02-12T00:07:03;92798.72;;;-3.18;75.09
10958;BME280;5531;42.570;23.676;2023-02-12T00:09:32;92795.31;;;-3.18;73.89
10958;BME280;5531;42.570;23.676;2023-02-12T00:12:02;92803.38;;;-3.24;74.12
10958;BME280;5531;42.570;23.676;2023-02-12T00:14:34;92796.88;;;-3.16;72.57
10958;BME280;5531;42.570;23.676;2023-02-12T00:17:04;92795.03;;;-3.14;72.83
10958;BME280;5531;42.570;23.676;2023-02-12T00:19:34;92796.91;;;-3.30;72.94
10958;BME280;5531;42.570;23.676;2023-02-12T00:22:03;92800.09;;;-3.26;72.79
10958;BME280;5531;42.570;23.676;2023-02-12T00:24:32;92803.38;;;-3.24;72.80
10958;BME280;5531;42.570;23.676;2023-02-12T00:27:01;92792.75;;;-3.18;73.31
10958;BME280;5531;42.570;23.676;2023-02-12T00:29:30;92790.19;;;-3.18;72.18
10958;BME280;5531;42.570;23.676;2023-02-12T00:32:02;92803.53;;;-3.13;72.28
10958;BME280;5531;42.570;23.676;2023-02-12T00:34:31;92791.03;;;-3.18;73.50
10958;BME280;5531;42.570;23.676;2023-02-12T00:37:00;92790.19;;;-3.18;73.46
10958;BME280;5531;42.570;23.676;2023-02-12T00:39:30;92795.94;;;-3.15;73.72
10958;BME280;5531;42.570;23.676;2023-02-12T00:42:01;92785.66;;;-3.27;74.26
10958;BME280;5531;42.570;23.676;2023-02-12T00:44:30;92778.72;;;-3.40;75.02
10958;BME280;5531;42.570;23.676;2023-02-12T00:47:02;92784.28;;;-3.33;75.87
10958;BME280;5531;42.570;23.676;2023-02-12T00:49:31;92776.34;;;-3.43;76.69
10958;BME280;5531;42.570;23.676;2023-02-12T00:52:02;92776.34;;;-3.43;76.45
10958;BME280;5531;42.570;23.676;2023-02-12T00:54:31;92778.91;;;-3.43;76.79
10958;BME280;5531;42.570;23.676;2023-02-12T00:57:00;92774.50;;;-3.41;76.19
10958;BME280;5531;42.570;23.676;2023-02-12T00:59:30;92765.94;;;-3.40;76.64
10958;BME280;5531;42.570;23.676;2023-02-12T01:02:05;92766.75;;;-3.54;76.68
10958;BME280;5531;42.570;23.676;2023-02-12T01:04:34;92751.03;;;-3.62;77.85
10958;BME280;5531;42.570;23.676;2023-02-12T01:07:03;92739.63;;;-3.56;77.61
10958;BME280;5531;42.570;23.676;2023-02-12T01:09:32;92746.41;;;-3.55;77.01
10958;BME280;5531;42.570;23.676;2023-02-12T01:12:01;92746.50;;;-3.57;76.83
10958;BME280;5531;42.570;23.676;2023-02-12T01:14:31;92745.00;;;-3.46;76.25
10958;BME280;5531;42.570;23.676;2023-02-12T01:17:00;92752.03;;;-3.36;75.88
10958;BME280;5531;42.570;23.676;2023-02-12T01:19:32;92747.25;;;-3.27;75.56
10958;BME280;5531;42.570;23.676;2023-02-12T01:22:04;92744.47;;;-3.24;74.75
10958;BME280;5531;42.570;23.676;2023-02-12T01:24:33;92757.81;;;-3.19;74.43
10958;BME280;5531;42.570;23.676;2023-02-12T01:27:02;92755.34;;;-3.21;74.83
10958;BME280;5531;42.570;23.676;2023-02-12T01:29:32;92749.59;;;-3.24;74.47
10958;BME280;5531;42.570;23.676;2023-02-12T01:32:01;92746.03;;;-3.22;74.57
10958;BME280;5531;42.570;23.676;2023-02-12T01:34:33;92756.28;;;-3.22;75.19
10958;BME280;5531;42.570;23.676;2023-02-12T01:37:02;92748.56;;;-3.22;75.07
10958;BME280;5531;42.570;23.676;2023-02-12T01:39:31;92750.63;;;-3.27;75.66
10958;BME280;5531;42.570;23.676;2023-02-12T01:42:01;92735.00;;;-3.37;76.23
10958;BME280;5531;42.570;23.676;2023-02-12T01:44:32;92731.16;;;-3.44;77.01
10958;BME280;5531;42.570;23.676;2023-02-12T01:47:04;92728.59;;;-3.44;76.87
10958;BME280;5531;42.570;23.676;2023-02-12T01:49:40;92727.53;;;-3.54;78.36
10958;BME280;5531;42.570;23.676;2023-02-12T01:52:14;92725.44;;;-3.62;78.32
10958;BME280;5531;42.570;23.676;2023-02-12T01:54:46;92719.78;;;-3.67;79.18
10958;BME280;5531;42.570;23.676;2023-02-12T01:57:17;92712.59;;;-3.75;79.56
10958;BME280;5531;42.570;23.676;2023-02-12T01:59:48;92715.53;;;-3.81;80.11
10958;BME280;5531;42.570;23.676;2023-02-12T02:02:18;92717.25;;;-3.81;80.55
10958;BME280;5531;42.570;23.676;2023-02-12T02:04:55;92714.50;;;-3.78;80.58
10958;BME280;5531;42.570;23.676;2023-02-12T02:07:26;92721.09;;;-3.74;80.99
10958;BME280;5531;42.570;23.676;2023-02-12T02:09:57;92716.63;;;-3.85;81.20
10958;BME280;5531;42.570;23.676;2023-02-12T02:12:26;92715.03;;;-3.73;80.78
10958;BME280;5531;42.570;23.676;2023-02-12T02:15:09;92711.41;;;-3.83;81.12
10958;BME280;5531;42.570;23.676;2023-02-12T02:17:48;92713.34;;;-3.87;81.49
10958;BME280;5531;42.570;23.676;2023-02-12T02:24:02;92728.25;;;-3.79;80.90
10958;BME280;5531;42.570;23.676;2023-02-12T02:32:49;92723.69;;;-3.89;81.67
10958;BME280;5531;42.570;23.676;2023-02-12T02:35:25;92713.34;;;-3.87;81.65
10958;BME280;5531;42.570;23.676;2023-02-12T02:38:03;92727.31;;;-3.78;81.29
10958;BME280;5531;42.570;23.676;2023-02-12T02:40:39;92722.72;;;-3.73;81.27
10958;BME280;5531;42.570;23.676;2023-02-12T02:43:15;92734.06;;;-3.63;80.43
10958;BME280;5531;42.570;23.676;2023-02-12T02:45:48;92725.66;;;-3.65;80.28
10958;BME280;5531;42.570;23.676;2023-02-12T02:48:25;92726.28;;;-3.61;80.88
10958;BME280;5531;42.570;23.676;2023-02-12T02:50:58;92728.09;;;-3.63;81.04
10958;BME280;5531;42.570;23.676;2023-02-12T02:53:32;92728.66;;;-3.58;80.85
10958;BME280;5531;42.570;23.676;2023-02-12T02:56:10;92722.41;;;-3.54;80.87
10958;BME280;5531;42.570;23.676;2023-02-12T02:58:45;92721.31;;;-3.50;81.02
10958;BME280;5531;42.570;23.676;2023-02-12T03:01:20;92730.72;;;-3.51;80.92
10958;BME280;5531;42.570;23.676;2023-02-12T03:03:57;92731.22;;;-3.58;80.57
10958;BME280;5531;42.570;23.676;2023-02-12T03:06:33;92730.53;;;-3.47;80.60
10958;BME280;5531;42.570;23.676;2023-02-12T03:09:11;92741.56;;;-3.60;80.95
10958;BME280;5531;42.570;23.676;2023-02-12T03:11:41;92739.44;;;-3.53;80.74
10958;BME280;5531;42.570;23.676;2023-02-12T03:14:12;92734.66;;;-3.45;80.99
10958;BME280;5531;42.570;23.676;2023-02-12T03:16:50;92735.91;;;-3.38;80.01
10958;BME280;5531;42.570;23.676;2023-02-12T03:19:28;92747.75;;;-3.50;80.08
10958;BME280;5531;42.570;23.676;2023-02-12T03:22:03;92731.75;;;-3.53;80.07
10958;BME280;5531;42.570;23.676;2023-02-12T03:24:35;92723.97;;;-3.52;80.38
10958;BME280;5531;42.570;23.676;2023-02-12T03:27:08;92728.56;;;-3.57;80.71
10958;BME280;5531;42.570;23.676;2023-02-12T03:29:39;92718.22;;;-3.55;81.39
10958;BME280;5531;42.570;23.676;2023-02-12T03:32:23;92712.53;;;-3.60;81.17
10958;BME280;5531;42.570;23.676;2023-02-12T03:35:08;92706.72;;;-3.77;81.15
10958;BME280;5531;42.570;23.676;2023-02-12T03:37:41;92717.50;;;-3.72;81.53
10958;BME280;5531;42.570;23.676;2023-02-12T03:40:17;92708.19;;;-3.73;82.04
10958;BME280;5531;42.570;23.676;2023-02-12T03:42:54;92716.03;;;-3.61;81.50
10958;BME280;5531;42.570;23.676;2023-02-12T03:45:36;92713.44;;;-3.47;81.24
10958;BME280;5531;42.570;23.676;2023-02-12T03:48:10;92720.72;;;-3.41;81.05
10958;BME280;5531;42.570;23.676;2023-02-12T03:50:48;92716.69;;;-3.30;80.87
10958;BME280;5531;42.570;23.676;2023-02-12T03:53:19;92714.75;;;-3.27;80.60
10958;BME280;5531;42.570;23.676;2023-02-12T03:55:53;92708.72;;;-3.26;80.56
10958;BME280;5531;42.570;23.676;2023-02-12T03:58:27;92710.53;;;-3.28;80.15
10958;BME280;5531;42.570;23.676;2023-02-12T04:00:58;92713.28;;;-3.31;80.23
10958;BME280;5531;42.570;23.676;2023-02-12T04:03:29;92705.31;;;-3.26;80.05
10958;BME280;5531;42.570;23.676;2023-02-12T04:06:01;92719.59;;;-3.22;80.20
10958;BME280;5531;42.570;23.676;2023-02-12T04:08:31;92716.59;;;-3.29;81.10
10958;BME280;5531;42.570;23.676;2023-02-12T04:11:06;92702.78;;;-3.41;81.05
10958;BME280;5531;42.570;23.676;2023-02-12T04:13:44;92719.53;;;-3.35;81.63
10958;BME280;5531;42.570;23.676;2023-02-12T04:16:33;92710.72;;;-3.31;81.51
10958;BME280;5531;42.570;23.676;2023-02-12T04:19:19;92703.78;;;-3.29;81.13
10958;BME280;5531;42.570;23.676;2023-02-12T04:22:01;92706.03;;;-3.24;80.58
10958;BME280;5531;42.570;23.676;2023-02-12T04:24:44;92708.09;;;-3.17;80.22
10958;BME280;5531;42.570;23.676;2023-02-12T04:27:19;92700.72;;;-3.21;80.80
10958;BME280;5531;42.570;23.676;2023-02-12T04:29:54;92698.06;;;-3.20;81.53
10958;BME280;5531;42.570;23.676;2023-02-12T04:32:29;92708.94;;;-3.16;81.44
10958;BME280;5531;42.570;23.676;2023-02-12T04:35:10;92709.88;;;-3.17;81.64
10958;BME280;5531;42.570;23.676;2023-02-12T04:37:47;92705.66;;;-3.18;81.06
10958;BME280;5531;42.570;23.676;2023-02-12T04:40:19;92709.34;;;-3.22;81.70
10958;BME280;5531;42.570;23.676;2023-02-12T04:42:51;92722.78;;;-3.19;81.65
10958;BME280;5531;42.570;23.676;2023-02-12T04:45:24;92720.72;;;-3.14;81.53
10958;BME280;5531;42.570;23.676;2023-02-12T04:47:57;92714.69;;;-3.13;81.64
10958;BME280;5531;42.570;23.676;2023-02-12T04:50:32;92713.75;;;-3.11;81.14
10958;BME280;5531;42.570;23.676;2023-02-12T04:53:09;92724.25;;;-3.02;81.36
10958;BME280;5531;42.570;23.676;2023-02-12T04:55:38;92735.16;;;-2.98;81.21
10958;BME280;5531;42.570;23.676;2023-02-12T04:58:07;92721.38;;;-2.97;80.94
10958;BME280;5531;42.570;23.676;2023-02-12T05:00:37;92720.78;;;-3.01;81.51
10958;BME280;5531;42.570;23.676;2023-02-12T05:03:06;92722.94;;;-2.95;81.76
10958;BME280;5531;42.570;23.676;2023-02-12T05:05:38;92726.31;;;-2.94;80.75
10958;BME280;5531;42.570;23.676;2023-02-12T05:08:10;92728.81;;;-2.80;80.45
10958;BME280;5531;42.570;23.676;2023-02-12T05:10:39;92727.69;;;-2.76;80.13
10958;BME280;5531;42.570;23.676;2023-02-12T05:13:09;92723.91;;;-2.70;79.37
10958;BME280;5531;42.570;23.676;2023-02-12T05:15:38;92726.19;;;-2.65;79.38
10958;BME280;5531;42.570;23.676;2023-02-12T05:18:07;92734.00;;;-2.54;78.47
10958;BME280;5531;42.570;23.676;2023-02-12T05:20:36;92736.38;;;-2.51;78.15
10958;BME280;5531;42.570;23.676;2023-02-12T05:23:05;92733.06;;;-2.40;78.08
10958;BME280;5531;42.570;23.676;2023-02-12T05:25:38;92746.09;;;-2.30;77.59
10958;BME280;5531;42.570;23.676;2023-02-12T05:28:07;92757.22;;;-2.30;77.28
10958;BME280;5531;42.570;23.676;2023-02-12T05:30:36;92752.38;;;-2.34;77.63
10958;BME280;5531;42.570;23.676;2023-02-12T05:33:05;92757.94;;;-2.28;77.81
10958;BME280;5531;42.570;23.676;2023-02-12T05:35:34;92756.66;;;-2.35;77.38
10958;BME280;5531;42.570;23.676;2023-02-12T05:38:03;92760.59;;;-2.29;77.09
10958;BME280;5531;42.570;23.676;2023-02-12T05:40:33;92758.94;;;-2.30;78.01
10958;BME280;5531;42.570;23.676;2023-02-12T05:43:05;92762.53;;;-2.33;77.78
10958;BME280;5531;42.570;23.676;2023-02-12T05:45:34;92765.53;;;-2.26;77.82
10958;BME280;5531;42.570;23.676;2023-02-12T05:48:06;92778.34;;;-2.26;77.43
10958;BME280;5531;42.570;23.676;2023-02-12T05:50:35;92778.25;;;-2.25;77.78
10958;BME280;5531;42.570;23.676;2023-02-12T05:53:05;92787.88;;;-2.15;78.45
10958;BME280;5531;42.570;23.676;2023-02-12T05:55:34;92783.69;;;-2.16;77.59
10958;BME280;5531;42.570;23.676;2023-02-12T05:58:06;92796.63;;;-2.18;78.62
10958;BME280;5531;42.570;23.676;2023-02-12T06:00:35;92796.22;;;-2.25;78.41
10958;BME280;5531;42.570;23.676;2023-02-12T06:03:04;92800.00;;;-2.30;80.36
10958;BME280;5531;42.570;23.676;2023-02-12T06:05:33;92803.28;;;-2.28;80.49
10958;BME280;5531;42.570;23.676;2023-02-12T06:08:03;92797.81;;;-2.36;86.79
10958;BME280;5531;42.570;23.676;2023-02-12T06:10:32;92802.25;;;-2.38;91.79
10958;BME280;5531;42.570;23.676;2023-02-12T06:13:02;92806.34;;;-2.49;95.34
10958;BME280;5531;42.570;23.676;2023-02-12T06:15:35;92785.94;;;-2.78;98.64
10958;BME280;5531;42.570;23.676;2023-02-12T06:18:04;92785.47;;;-2.70;99.56
10958;BME280;5531;42.570;23.676;2023-02-12T06:20:33;92787.72;;;-2.65;99.69
10958;BME280;5531;42.570;23.676;2023-02-12T06:23:02;92786.28;;;-2.69;99.97
10958;BME280;5531;42.570;23.676;2023-02-12T06:25:31;92780.75;;;-2.63;99.58
10958;BME280;5531;42.570;23.676;2023-02-12T06:28:01;92792.34;;;-2.58;98.40
10958;BME280;5531;42.570;23.676;2023-02-12T06:30:33;92791.75;;;-2.48;97.43
10958;BME280;5531;42.570;23.676;2023-02-12T06:33:02;92797.44;;;-2.30;95.94
10958;BME280;5531;42.570;23.676;2023-02-12T06:35:39;92794.47;;;-2.24;94.41
10958;BME280;5531;42.570;23.676;2023-02-12T06:38:09;92803.00;;;-2.11;93.23
10958;BME280;5531;42.570;23.676;2023-02-12T06:40:39;92796.94;;;-2.10;92.06
10958;BME280;5531;42.570;23.676;2023-02-12T06:43:08;92799.31;;;-2.07;92.29
10958;BME280;5531;42.570;23.676;2023-02-12T06:45:43;92798.78;;;-1.99;91.30
10958;BME280;5531;42.570;23.676;2023-02-12T06:48:12;92800.13;;;-1.93;91.81
10958;BME280;5531;42.570;23.676;2023-02-12T06:50:41;92794.47;;;-1.98;92.01
10958;BME280;5531;42.570;23.676;2023-02-12T06:53:10;92801.03;;;-1.94;92.98
10958;BME280;5531;42.570;23.676;2023-02-12T06:55:40;92806.28;;;-1.83;93.01
10958;BME280;5531;42.570;23.676;2023-02-12T06:58:11;92803.91;;;-1.86;93.01
10958;BME280;5531;42.570;23.676;2023-02-12T07:00:43;92806.88;;;-1.79;93.67
10958;BME280;5531;42.570;23.676;2023-02-12T07:03:12;92810.31;;;-1.79;93.50
10958;BME280;5531;42.570;23.676;2023-02-12T07:05:42;92807.84;;;-1.80;93.45
10958;BME280;5531;42.570;23.676;2023-02-12T07:08:11;92812.75;;;-1.90;94.32
10958;BME280;5531;42.570;23.676;2023-02-12T07:10:40;92812.47;;;-1.86;93.95
10958;BME280;5531;42.570;23.676;2023-02-12T07:13:09;92818.81;;;-1.91;93.99
10958;BME280;5531;42.570;23.676;2023-02-12T07:15:38;92811.31;;;-1.81;95.06
10958;BME280;5531;42.570;23.676;2023-02-12T07:18:10;92812.31;;;-1.71;94.00
10958;BME280;5531;42.570;23.676;2023-02-12T07:20:40;92819.41;;;-1.62;93.89
10958;BME280;5531;42.570;23.676;2023-02-12T07:23:10;92810.41;;;-1.68;94.71
10958;BME280;5531;42.570;23.676;2023-02-12T07:25:39;92817.16;;;-1.67;94.86
10958;BME280;5531;42.570;23.676;2023-02-12T07:28:09;92813.47;;;-1.75;95.51
10958;BME280;5531;42.570;23.676;2023-02-12T07:30:39;92824.47;;;-1.73;96.15
10958;BME280;5531;42.570;23.676;2023-02-12T07:33:11;92819.31;;;-1.73;96.39
10958;BME280;5531;42.570;23.676;2023-02-12T07:35:40;92824.56;;;-1.75;96.99
10958;BME280;5531;42.570;23.676;2023-02-12T07:38:09;92813.28;;;-1.72;97.24
10958;BME280;5531;42.570;23.676;2023-02-12T07:40:39;92830.94;;;-1.68;96.82
10958;BME280;5531;42.570;23.676;2023-02-12T07:43:11;92820.28;;;-1.74;97.40
10958;BME280;5531;42.570;23.676;2023-02-12T07:45:40;92831.66;;;-1.66;97.33
10958;BME280;5531;42.570;23.676;2023-02-12T07:48:12;92819.13;;;-1.70;97.83
10958;BME280;5531;42.570;23.676;2023-02-12T07:50:41;92821.38;;;-1.66;97.68
10958;BME280;5531;42.570;23.676;2023-02-12T07:53:10;92820.66;;;-1.55;97.64
10958;BME280;5531;42.570;23.676;2023-02-12T07:55:40;92825.25;;;-1.47;97.07
10958;BME280;5531;42.570;23.676;2023-02-12T07:58:09;92827.00;;;-1.35;97.18
10958;BME280;5531;42.570;23.676;2023-02-12T08:00:38;92818.91;;;-1.41;96.18
10958;BME280;5531;42.570;23.676;2023-02-12T08:03:07;92808.81;;;-1.44;96.86
10958;BME280;5531;42.570;23.676;2023-02-12T08:05:39;92825.56;;;-1.39;96.97
10958;BME280;5531;42.570;23.676;2023-02-12T08:08:09;92825.25;;;-1.47;97.11
10958;BME280;5531;42.570;23.676;2023-02-12T08:10:38;92830.41;;;-1.47;97.38
10958;BME280;5531;42.570;23.676;2023-02-12T08:13:08;92827.94;;;-1.49;98.58
10958;BME280;5531;42.570;23.676;2023-02-12T08:15:37;92830.72;;;-1.52;98.03
10958;BME280;5531;42.570;23.676;2023-02-12T08:18:06;92835.75;;;-1.50;98.47
10958;BME280;5531;42.570;23.676;2023-02-12T08:20:39;92836.47;;;-1.48;98.41
10958;BME280;5531;42.570;23.676;2023-02-12T08:23:08;92828.44;;;-1.43;97.69
10958;BME280;5531;42.570;23.676;2023-02-12T08:25:38;92839.13;;;-1.37;98.08
10958;BME280;5531;42.570;23.676;2023-02-12T08:28:08;92840.97;;;-1.39;97.45
10958;BME280;5531;42.570;23.676;2023-02-12T08:30:37;92848.06;;;-1.30;97.38
10958;BME280;5531;42.570;23.676;2023-02-12T08:33:07;92850.72;;;-1.18;96.92
10958;BME280;5531;42.570;23.676;2023-02-12T08:35:38;92850.94;;;-1.34;97.08
10958;BME280;5531;42.570;23.676;2023-02-12T08:38:07;92862.56;;;-1.16;97.23
10958;BME280;5531;42.570;23.676;2023-02-12T08:40:37;92859.97;;;-1.16;96.52
10958;BME280;5531;42.570;23.676;2023-02-12T08:43:06;92860.44;;;-0.98;96.79
10958;BME280;5531;42.570;23.676;2023-02-12T08:45:35;92864.16;;;-1.02;96.26
10958;BME280;5531;42.570;23.676;2023-02-12T08:48:04;92853.72;;;-0.87;96.48
10958;BME280;5531;42.570;23.676;2023-02-12T08:50:33;92861.22;;;-0.84;95.98
10958;BME280;5531;42.570;23.676;2023-02-12T08:53:06;92865.72;;;-0.75;95.61
10958;BME280;5531;42.570;23.676;2023-02-12T08:55:35;92874.16;;;-0.73;95.39
10958;BME280;5531;42.570;23.676;2023-02-12T08:58:04;92875.16;;;-0.63;94.77
10958;BME280;5531;42.570;23.676;2023-02-12T09:00:34;92880.56;;;-0.54;95.21
10958;BME280;5531;42.570;23.676;2023-02-12T09:03:03;92888.19;;;-0.53;94.91
10958;BME280;5531;42.570;23.676;2023-02-12T09:05:37;92876.63;;;-0.47;93.88
10958;BME280;5531;42.570;23.676;2023-02-12T09:08:09;92883.09;;;-0.42;93.84
10958;BME280;5531;42.570;23.676;2023-02-12T09:10:38;92884.50;;;-0.38;93.53
10958;BME280;5531;42.570;23.676;2023-02-12T09:13:08;92888.13;;;-0.40;94.28
10958;BME280;5531;42.570;23.676;2023-02-12T09:15:38;92897.38;;;-0.38;94.50
10958;BME280;5531;42.570;23.676;2023-02-12T09:18:07;92888.63;;;-0.35;94.06
10958;BME280;5531;42.570;23.676;2023-02-12T09:20:38;92901.22;;;-0.19;94.07
10958;BME280;5531;42.570;23.676;2023-02-12T09:23:12;92903.69;;;0.07;93.92
10958;BME280;5531;42.570;23.676;2023-02-12T09:25:43;92910.00;;;0.14;92.08
10958;BME280;5531;42.570;23.676;2023-02-12T09:28:13;92917.69;;;0.03;91.82
10958;BME280;5531;42.570;23.676;2023-02-12T09:30:45;92916.03;;;0.02;92.42
10958;BME280;5531;42.570;23.676;2023-02-12T09:33:14;92913.34;;;0.03;91.95
10958;BME280;5531;42.570;23.676;2023-02-12T09:35:44;92910.31;;;-0.02;92.23
10958;BME280;5531;42.570;23.676;2023-02-12T09:38:15;92908.72;;;0.20;92.80
10958;BME280;5531;42.570;23.676;2023-02-12T09:40:51;92909.28;;;0.36;91.69
10958;BME280;5531;42.570;23.676;2023-02-12T09:43:32;92900.34;;;0.40;91.19
10958;BME280;5531;42.570;23.676;2023-02-12T09:46:09;92892.66;;;0.63;90.73
10958;BME280;5531;42.570;23.676;2023-02-12T09:48:52;92896.91;;;0.75;90.55
10958;BME280;5531;42.570;23.676;2023-02-12T09:51:22;92895.84;;;1.00;90.54
10958;BME280;5531;42.570;23.676;2023-02-12T09:54:01;92892.47;;;1.22;89.34
10958;BME280;5531;42.570;23.676;2023-02-12T09:56:33;92884.44;;;1.37;86.35
10958;BME280;5531;42.570;23.676;2023-02-12T09:59:05;92888.31;;;1.31;85.42
10958;BME280;5531;42.570;23.676;2023-02-12T10:01:35;92886.56;;;1.20;85.21
10958;BME280;5531;42.570;23.676;2023-02-12T10:04:04;92896.53;;;1.36;88.22
10958;BME280;5531;42.570;23.676;2023-02-12T10:06:40;92905.03;;;1.71;87.12
10958;BME280;5531;42.570;23.676;2023-02-12T10:09:38;92906.41;;;1.86;84.39
10958;BME280;5531;42.570;23.676;2023-02-12T10:12:18;92906.19;;;1.78;83.77
10958;BME280;5531;42.570;23.676;2023-02-12T10:18:01;92917.13;;;1.70;83.59
10958;BME280;5531;42.570;23.676;2023-02-12T10:23:46;92922.94;;;1.28;86.43
10958;BME280;5531;42.570;23.676;2023-02-12T10:26:23;92921.31;;;1.16;86.67
10958;BME280;5531;42.570;23.676;2023-02-12T10:28:53;92917.75;;;1.28;87.12
10958;BME280;5531;42.570;23.676;2023-02-12T10:31:29;92921.78;;;1.21;86.69
10958;BME280;5531;42.570;23.676;2023-02-12T10:34:00;92922.47;;;1.12;88.42
10958;BME280;5531;42.570;23.676;2023-02-12T10:36:40;92926.00;;;1.11;87.63
10958;BME280;5531;42.570;23.676;2023-02-12T10:39:15;92919.31;;;1.08;88.70
10958;BME280;5531;42.570;23.676;2023-02-12T10:41:54;92915.44;;;1.14;88.64
10958;BME280;5531;42.570;23.676;2023-02-12T10:44:24;92907.09;;;1.10;88.33
10958;BME280;5531;42.570;23.676;2023-02-12T10:46:53;92907.34;;;0.85;89.14
10958;BME280;5531;42.570;23.676;2023-02-12T10:49:22;92902.66;;;0.90;89.77
10958;BME280;5531;42.570;23.676;2023-02-12T10:52:08;92895.13;;;0.64;90.40
10958;BME280;5531;42.570;23.676;2023-02-12T10:54:41;92900.41;;;0.74;90.94
10958;BME280;5531;42.570;23.676;2023-02-12T10:57:17;92896.41;;;0.70;90.81
10958;BME280;5531;42.570;23.676;2023-02-12T10:59:48;92896.41;;;0.70;91.35
10958;BME280;5531;42.570;23.676;2023-02-12T11:02:21;92890.22;;;0.72;91.75
10958;BME280;5531;42.570;23.676;2023-02-12T11:04:51;92894.34;;;0.75;91.32
10958;BME280;5531;42.570;23.676;2023-02-12T11:07:21;92896.28;;;0.60;91.24
10958;BME280;5531;42.570;23.676;2023-02-12T11:09:53;92901.69;;;0.57;91.35
10958;BME280;5531;42.570;23.676;2023-02-12T11:12:33;92912.72;;;0.70;91.46
10958;BME280;5531;42.570;23.676;2023-02-12T11:15:12;92910.38;;;0.67;91.19
10958;BME280;5531;42.570;23.676;2023-02-12T11:17:43;92907.09;;;0.77;90.96
10958;BME280;5531;42.570;23.676;2023-02-12T11:20:21;92914.59;;;0.80;90.65
10958;BME280;5531;42.570;23.676;2023-02-12T11:22:53;92913.19;;;0.76;91.37
10958;BME280;5531;42.570;23.676;2023-02-12T11:25:24;92919.06;;;0.78;91.81
10958;BME280;5531;42.570;23.676;2023-02-12T11:28:05;92919.16;;;0.76;91.35
10958;BME280;5531;42.570;23.676;2023-02-12T11:30:51;92927.47;;;0.68;91.29
10958;BME280;5531;42.570;23.676;2023-02-12T11:33:29;92927.03;;;0.75;91.32
10958;BME280;5531;42.570;23.676;2023-02-12T11:36:02;92935.34;;;0.89;90.79
10958;BME280;5531;42.570;23.676;2023-02-12T11:38:37;92933.16;;;0.85;89.73
10958;BME280;5531;42.570;23.676;2023-02-12T11:41:21;92940.75;;;0.98;90.54
10958;BME280;5531;42.570;23.676;2023-02-12T11:43:54;92939.25;;;0.95;89.88
10958;BME280;5531;42.570;23.676;2023-02-12T11:46:24;92938.78;;;1.01;89.70
10958;BME280;5531;42.570;23.676;2023-02-12T11:48:55;92934.56;;;1.00;89.19
10958;BME280;5531;42.570;23.676;2023-02-12T11:51:28;92933.84;;;0.87;88.61
10958;BME280;5531;42.570;23.676;2023-02-12T11:53:59;92928.34;;;0.91;89.05
10958;BME280;5531;42.570;23.676;2023-02-12T11:56:42;92922.22;;;0.93;89.25
10958;BME280;5531;42.570;23.676;2023-02-12T11:59:30;92920.13;;;0.98;89.00
10958;BME280;5531;42.570;23.676;2023-02-12T12:02:04;92926.94;;;1.10;89.07
10958;BME280;5531;42.570;23.676;2023-02-12T12:04:34;92930.31;;;1.22;88.90
10958;BME280;5531;42.570;23.676;2023-02-12T12:07:08;92936.78;;;1.27;87.28
10958;BME280;5531;42.570;23.676;2023-02-12T12:09:43;92934.22;;;1.27;87.27
10958;BME280;5531;42.570;23.676;2023-02-12T12:12:17;92933.47;;;1.25;86.89
10958;BME280;5531;42.570;23.676;2023-02-12T12:14:53;92933.03;;;1.20;86.96
10958;BME280;5531;42.570;23.676;2023-02-12T12:17:41;92940.06;;;1.41;88.48
10958;BME280;5531;42.570;23.676;2023-02-12T12:20:29;92934.56;;;1.45;87.55
10958;BME280;5531;42.570;23.676;2023-02-12T12:23:03;92936.16;;;1.58;87.48
10958;BME280;5531;42.570;23.676;2023-02-12T12:25:39;92935.81;;;1.40;86.13
10958;BME280;5531;42.570;23.676;2023-02-12T12:28:23;92938.03;;;1.56;86.27
10958;BME280;5531;42.570;23.676;2023-02-12T12:31:03;92940.84;;;1.64;85.92
10958;BME280;5531;42.570;23.676;2023-02-12T12:33:43;92947.03;;;1.73;86.12
10958;BME280;5531;42.570;23.676;2023-02-12T12:36:33;92940.63;;;1.67;85.80
10958;BME280;5531;42.570;23.676;2023-02-12T12:39:15;92948.03;;;1.60;85.04
10958;BME280;5531;42.570;23.676;2023-02-12T12:42:00;92953.44;;;1.46;86.21
10958;BME280;5531;42.570;23.676;2023-02-12T12:44:44;92971.50;;;1.46;87.00
10958;BME280;5531;42.570;23.676;2023-02-12T12:47:28;92966.00;;;1.28;87.99
10958;BME280;5531;42.570;23.676;2023-02-12T12:50:17;92971.63;;;1.33;87.98
10958;BME280;5531;42.570;23.676;2023-02-12T12:53:02;92956.72;;;1.37;87.20
10958;BME280;5531;42.570;23.676;2023-02-12T12:55:57;92954.63;;;1.31;87.81
10958;BME280;5531;42.570;23.676;2023-02-12T12:58:38;92950.63;;;1.26;88.25
10958;BME280;5531;42.570;23.676;2023-02-12T13:01:33;92953.66;;;1.32;88.31
10958;BME280;5531;42.570;23.676;2023-02-12T13:04:35;92940.19;;;1.28;88.77
10958;BME280;5531;42.570;23.676;2023-02-12T13:07:18;92953.66;;;1.32;88.63
10958;BME280;5531;42.570;23.676;2023-02-12T13:10:10;92954.75;;;1.40;89.13
10958;BME280;5531;42.570;23.676;2023-02-12T13:12:55;92962.47;;;1.40;88.93
10958;BME280;5531;42.570;23.676;2023-02-12T13:15:33;92965.53;;;1.45;87.85
10958;BME280;5531;42.570;23.676;2023-02-12T13:18:21;92977.81;;;1.53;88.10
10958;BME280;5531;42.570;23.676;2023-02-12T13:21:03;92971.59;;;1.78;87.71
10958;BME280;5531;42.570;23.676;2023-02-12T13:23:41;92974.25;;;1.99;86.82
10958;BME280;5531;42.570;23.676;2023-02-12T13:26:15;92974.00;;;2.03;85.78
10958;BME280;5531;42.570;23.676;2023-02-12T13:28:48;92978.66;;;2.20;87.03
10958;BME280;5531;42.570;23.676;2023-02-12T13:31:21;92972.81;;;2.39;85.14
10958;BME280;5531;42.570;23.676;2023-02-12T13:33:54;92982.84;;;2.32;83.62
10958;BME280;5531;42.570;23.676;2023-02-12T13:36:26;92980.66;;;2.49;83.59
10958;BME280;5531;42.570;23.676;2023-02-12T13:39:00;92978.44;;;2.44;84.34
10958;BME280;5531;42.570;23.676;2023-02-12T13:41:32;92977.69;;;2.53;82.68
10958;BME280;5531;42.570;23.676;2023-02-12T13:44:09;92976.22;;;2.39;83.48
10958;BME280;5531;42.570;23.676;2023-02-12T13:46:50;92983.88;;;2.62;84.00
10958;BME280;5531;42.570;23.676;2023-02-12T13:49:28;92985.28;;;2.66;82.88
10958;BME280;5531;42.570;23.676;2023-02-12T13:52:07;92989.31;;;2.59;82.14